createdAt,value
2019-03-17T00:00:16.414Z,4.20
2019-03-17T00:02:47.596Z,4.20
2019-03-17T00:05:17.607Z,4.00
2019-03-17T00:07:49.160Z,4.00
2019-03-17T00:10:22.114Z,4.10
2019-03-17T00:12:51.379Z,4.00
2019-03-17T00:15:21.525Z,4.00
2019-03-17T00:17:51.505Z,3.90
2019-03-17T00:20:21.522Z,3.80
2019-03-17T00:22:51.605Z,3.90
2019-03-17T00:25:21.602Z,3.80
2019-03-17T00:27:52.767Z,3.90
2019-03-17T00:30:24.435Z,3.70
2019-03-17T00:32:56.936Z,3.80
2019-03-17T00:35:28.164Z,3.70
2019-03-17T00:37:57.955Z,3.60
2019-03-17T00:40:28.093Z,3.60
2019-03-17T00:43:04.191Z,3.60
2019-03-17T00:45:34.319Z,3.70
2019-03-17T00:48:05.587Z,3.70
2019-03-17T00:50:35.585Z,3.60
2019-03-17T00:53:08.807Z,3.50
2019-03-17T00:55:42.848Z,3.70
2019-03-17T00:58:12.910Z,3.70
2019-03-17T01:00:43.017Z,3.60
2019-03-17T01:03:13.073Z,3.60
2019-03-17T01:05:43.129Z,3.60
2019-03-17T01:08:13.217Z,3.70
2019-03-17T01:10:43.208Z,3.80
2019-03-17T01:13:13.429Z,3.80
2019-03-17T01:15:43.400Z,3.90
2019-03-17T01:18:13.460Z,4.00
2019-03-17T01:20:43.444Z,4.00
2019-03-17T01:23:13.526Z,4.10
2019-03-17T01:25:43.614Z,4.20
2019-03-17T01:28:13.675Z,4.30
2019-03-17T01:30:46.588Z,4.30
2019-03-17T01:33:16.667Z,4.50
2019-03-17T01:35:46.643Z,4.50
2019-03-17T01:38:16.662Z,4.60
2019-03-17T01:40:46.716Z,4.60
2019-03-17T01:43:16.744Z,4.60
2019-03-17T01:45:46.798Z,4.70
2019-03-17T01:48:16.783Z,4.70
2019-03-17T01:50:46.766Z,4.70
2019-03-17T01:53:19.795Z,4.50
2019-03-17T01:55:51.566Z,4.40
2019-03-17T01:58:21.547Z,4.40
2019-03-17T02:00:51.609Z,4.40
2019-03-17T02:03:21.660Z,4.40
2019-03-17T02:05:51.685Z,4.50
2019-03-17T02:08:21.749Z,4.50
2019-03-17T02:10:51.757Z,4.50
2019-03-17T02:13:21.805Z,4.50
2019-03-17T02:15:51.851Z,4.40
2019-03-17T02:18:21.835Z,4.40
2019-03-17T02:20:51.828Z,4.20
2019-03-17T02:23:23.522Z,4.20
2019-03-17T02:25:53.502Z,4.10
2019-03-17T02:28:30.300Z,4.20
2019-03-17T02:31:00.370Z,4.40
2019-03-17T02:33:30.405Z,4.40
2019-03-17T02:36:01.931Z,4.60
2019-03-17T02:38:31.971Z,4.60
2019-03-17T02:41:03.348Z,4.50
2019-03-17T02:43:43.939Z,4.60
2019-03-17T02:46:11.823Z,4.50
2019-03-17T02:48:43.537Z,4.60
2019-03-17T02:51:13.646Z,4.60
2019-03-17T02:53:43.667Z,4.60
2019-03-17T02:56:14.824Z,4.60
2019-03-17T02:58:44.809Z,4.50
2019-03-17T03:01:17.553Z,4.50
2019-03-17T03:03:50.972Z,4.10
2019-03-17T03:06:27.175Z,4.10
2019-03-17T03:09:00.198Z,4.00
2019-03-17T03:11:32.698Z,4.10
2019-03-17T03:14:03.802Z,4.10
2019-03-17T03:16:33.945Z,4.10
2019-03-17T03:19:04.048Z,4.00
2019-03-17T03:21:34.143Z,3.80
2019-03-17T03:24:04.292Z,3.70
2019-03-17T03:26:35.532Z,3.70
2019-03-17T03:29:05.624Z,3.60
2019-03-17T03:31:39.430Z,3.60
2019-03-17T03:34:09.210Z,3.60
2019-03-17T03:36:39.255Z,3.60
2019-03-17T03:39:12.435Z,3.40
2019-03-17T03:41:42.503Z,3.30
2019-03-17T03:44:13.853Z,3.30
2019-03-17T03:46:43.960Z,3.20
2019-03-17T03:49:14.785Z,3.40
2019-03-17T03:51:44.936Z,3.40
2019-03-17T03:54:18.053Z,3.20
2019-03-17T03:56:49.936Z,3.20
2019-03-17T03:59:26.201Z,3.30
2019-03-17T04:01:56.279Z,3.30
2019-03-17T04:04:27.566Z,3.40
2019-03-17T04:06:57.713Z,3.30
2019-03-17T04:09:30.789Z,3.30
2019-03-17T04:12:00.856Z,3.20
2019-03-17T04:14:38.882Z,3.20
2019-03-17T04:17:05.303Z,3.20
2019-03-17T04:19:35.368Z,3.10
2019-03-17T04:22:05.477Z,3.10
2019-03-17T04:24:35.477Z,3.00
2019-03-17T04:27:07.207Z,3.00
2019-03-17T04:29:42.317Z,2.70
2019-03-17T04:32:12.004Z,2.70
2019-03-17T04:34:43.206Z,2.60
2019-03-17T04:37:16.056Z,2.60
2019-03-17T04:39:46.162Z,2.50
2019-03-17T04:42:20.680Z,2.50
2019-03-17T04:44:50.691Z,2.40
2019-03-17T04:47:20.695Z,2.30
2019-03-17T04:49:51.849Z,2.50
2019-03-17T04:52:25.491Z,2.30
2019-03-17T04:54:57.081Z,2.40
2019-03-17T04:57:27.059Z,2.50
2019-03-17T04:59:57.059Z,2.60
2019-03-17T05:02:27.039Z,2.70
2019-03-17T05:05:00.071Z,2.70
2019-03-17T05:07:29.849Z,2.60
2019-03-17T05:09:59.914Z,2.60
2019-03-17T05:12:30.149Z,2.50
2019-03-17T05:15:01.171Z,2.70
2019-03-17T05:17:33.040Z,2.80
2019-03-17T05:20:06.549Z,2.90
2019-03-17T05:22:36.366Z,3.10
2019-03-17T05:25:16.294Z,2.90
2019-03-17T05:27:46.420Z,3.00
2019-03-17T05:30:16.400Z,3.00
2019-03-17T05:32:48.193Z,3.10
2019-03-17T05:35:22.646Z,3.00
2019-03-17T05:37:53.514Z,3.10
2019-03-17T05:40:23.506Z,3.10
2019-03-17T05:42:53.489Z,3.30
2019-03-17T05:45:23.483Z,3.40
2019-03-17T05:47:53.530Z,3.40
2019-03-17T05:50:25.212Z,3.60
2019-03-17T05:52:55.209Z,3.60
2019-03-17T05:55:26.191Z,3.80
2019-03-17T05:57:58.681Z,4.10
2019-03-17T06:00:30.674Z,4.50
2019-03-17T06:03:02.002Z,5.20
2019-03-17T06:05:35.849Z,6.40
2019-03-17T06:08:06.939Z,7.40
2019-03-17T06:10:41.244Z,7.60
2019-03-17T06:13:12.461Z,7.60
2019-03-17T06:15:44.304Z,7.90
2019-03-17T06:18:14.470Z,8.60
2019-03-17T06:20:44.660Z,9.50
2019-03-17T06:23:16.004Z,9.10
2019-03-17T06:25:48.484Z,8.60
2019-03-17T06:28:21.549Z,8.60
2019-03-17T06:30:50.374Z,9.70
2019-03-17T06:33:22.046Z,10.00
2019-03-17T06:35:53.368Z,10.70
2019-03-17T06:38:24.786Z,11.70
2019-03-17T06:40:56.373Z,11.50
2019-03-17T06:43:26.377Z,11.60
2019-03-17T06:45:57.745Z,11.90
2019-03-17T06:48:29.083Z,11.80
2019-03-17T06:51:00.651Z,11.70
2019-03-17T06:53:32.813Z,12.00
2019-03-17T06:56:06.981Z,12.20
2019-03-17T06:58:38.274Z,12.00
2019-03-17T07:01:08.399Z,11.60
2019-03-17T07:03:40.038Z,11.50
2019-03-17T07:06:12.043Z,11.30
2019-03-17T07:08:41.767Z,12.60
2019-03-17T07:11:11.833Z,14.20
2019-03-17T07:13:41.879Z,14.20
2019-03-17T07:16:14.902Z,13.90
2019-03-17T07:18:46.564Z,13.20
2019-03-17T07:21:17.320Z,12.50
2019-03-17T07:23:54.703Z,13.30
2019-03-17T07:26:27.897Z,14.00
2019-03-17T07:28:57.884Z,15.30
2019-03-17T07:31:27.891Z,16.60
2019-03-17T07:33:57.894Z,17.30
2019-03-17T07:36:27.963Z,17.40
2019-03-17T07:39:11.296Z,17.70
2019-03-17T07:41:34.797Z,18.80
2019-03-17T07:44:04.827Z,18.90
2019-03-17T07:46:34.833Z,18.80
2019-03-17T07:49:06.488Z,18.90
2019-03-17T07:51:36.551Z,19.90
2019-03-17T07:54:06.607Z,20.50
2019-03-17T07:56:38.936Z,20.80
2019-03-17T07:59:15.385Z,21.70
2019-03-17T08:01:44.685Z,23.40
2019-03-17T08:04:16.025Z,23.90
2019-03-17T08:06:46.029Z,24.80
2019-03-17T08:09:16.053Z,26.40
2019-03-17T08:11:46.038Z,27.20
2019-03-17T08:14:16.121Z,29.30
2019-03-17T08:16:46.130Z,30.30
2019-03-17T08:19:16.179Z,31.30
2019-03-17T08:21:46.264Z,32.00
2019-03-17T08:24:16.442Z,33.70
2019-03-17T08:26:46.632Z,35.60
2019-03-17T08:29:16.648Z,37.00
2019-03-17T08:31:46.655Z,37.50
2019-03-17T08:34:16.756Z,37.00
2019-03-17T08:36:46.836Z,36.90
2019-03-17T08:39:16.896Z,37.40
2019-03-17T08:41:46.908Z,36.90
2019-03-17T08:44:16.978Z,37.70
2019-03-17T08:46:47.062Z,37.80
2019-03-17T08:49:17.133Z,36.00
2019-03-17T08:51:47.202Z,36.80
2019-03-17T08:54:17.202Z,37.40
2019-03-17T08:56:47.296Z,36.80
2019-03-17T08:59:17.422Z,35.60
2019-03-17T09:01:47.814Z,36.10
2019-03-17T09:04:17.969Z,36.60
2019-03-17T09:06:48.002Z,37.10
2019-03-17T09:09:18.128Z,37.40
2019-03-17T09:11:48.143Z,36.90
2019-03-17T09:14:18.143Z,36.50
2019-03-17T09:16:48.261Z,37.20
2019-03-17T09:19:18.338Z,37.90
2019-03-17T09:21:48.425Z,37.30
2019-03-17T09:24:18.490Z,37.50
2019-03-17T09:26:48.481Z,37.80
2019-03-17T09:29:18.497Z,36.80
2019-03-17T09:31:48.596Z,36.20
2019-03-17T09:34:18.598Z,36.80
2019-03-17T09:36:48.587Z,36.80
2019-03-17T09:39:20.141Z,36.30
2019-03-17T09:41:50.278Z,35.80
2019-03-17T09:44:20.359Z,35.70
2019-03-17T09:46:50.375Z,35.90
2019-03-17T09:49:20.387Z,34.50
2019-03-17T09:51:50.445Z,34.30
2019-03-17T09:54:20.543Z,34.10
2019-03-17T09:56:50.641Z,34.20
2019-03-17T09:59:20.664Z,35.00
2019-03-17T10:01:50.723Z,35.30
2019-03-17T10:04:20.819Z,35.00
2019-03-17T10:06:51.106Z,34.50
2019-03-17T10:09:21.216Z,33.50
2019-03-17T10:11:51.253Z,34.40
2019-03-17T10:14:21.274Z,33.90
2019-03-17T10:16:51.362Z,33.90
2019-03-17T10:19:21.442Z,33.10
2019-03-17T10:21:54.314Z,32.30
2019-03-17T10:24:24.383Z,33.60
2019-03-17T10:26:54.706Z,33.70
2019-03-17T10:29:26.473Z,33.10
2019-03-17T10:31:59.732Z,33.10
2019-03-17T10:34:29.811Z,33.40
2019-03-17T10:37:03.789Z,33.30
2019-03-17T10:39:33.902Z,33.50
2019-03-17T10:42:09.854Z,34.50
2019-03-17T10:44:38.391Z,33.60
2019-03-17T10:47:08.370Z,33.50
2019-03-17T10:49:38.398Z,32.80
2019-03-17T10:52:11.417Z,33.20
2019-03-17T10:54:44.290Z,33.40
2019-03-17T10:57:14.584Z,33.50
2019-03-17T10:59:44.576Z,33.00
2019-03-17T11:02:14.584Z,33.40
2019-03-17T11:04:47.338Z,33.40
2019-03-17T11:07:17.308Z,33.60
2019-03-17T11:09:47.306Z,33.00
2019-03-17T11:12:19.083Z,31.30
2019-03-17T11:14:49.094Z,28.60
2019-03-17T11:17:19.099Z,26.90
2019-03-17T11:19:49.213Z,25.70
2019-03-17T11:22:19.230Z,24.80
2019-03-17T11:24:49.221Z,24.10
2019-03-17T11:27:19.331Z,23.50
2019-03-17T11:29:49.355Z,23.20
2019-03-17T11:32:19.344Z,22.80
2019-03-17T11:34:49.343Z,22.50
2019-03-17T11:37:20.369Z,22.50
2019-03-17T11:39:50.547Z,22.40
2019-03-17T11:42:22.947Z,22.00
2019-03-17T11:44:53.092Z,21.40
2019-03-17T11:47:23.387Z,21.00
2019-03-17T11:49:58.054Z,20.50
2019-03-17T11:52:28.119Z,20.60
2019-03-17T11:54:58.281Z,20.80
2019-03-17T11:57:28.368Z,21.00
2019-03-17T11:59:58.363Z,21.00
2019-03-17T12:02:28.419Z,21.00
2019-03-17T12:04:58.433Z,21.00
2019-03-17T12:07:28.442Z,20.80
2019-03-17T12:09:58.519Z,20.80
2019-03-17T12:12:28.607Z,20.90
2019-03-17T12:14:58.707Z,20.70
2019-03-17T12:17:28.778Z,20.70
2019-03-17T12:19:58.753Z,20.70
2019-03-17T12:22:28.776Z,20.60
2019-03-17T12:24:58.889Z,20.60
2019-03-17T12:27:28.953Z,20.40
2019-03-17T12:29:59.066Z,20.40
2019-03-17T12:32:29.145Z,20.20
2019-03-17T12:34:59.240Z,20.30
2019-03-17T12:37:29.229Z,20.30
2019-03-17T12:40:02.753Z,20.20
2019-03-17T12:42:31.048Z,20.20
2019-03-17T12:45:01.179Z,20.20
2019-03-17T12:47:31.340Z,20.00
2019-03-17T12:50:04.444Z,20.00
2019-03-17T12:52:34.519Z,19.60
2019-03-17T12:55:05.327Z,19.20
2019-03-17T12:57:35.404Z,19.30
2019-03-17T13:00:06.899Z,19.40
2019-03-17T13:02:36.896Z,19.60
2019-03-17T13:05:07.256Z,19.70
2019-03-17T13:07:37.276Z,19.90
2019-03-17T13:10:15.862Z,20.00
2019-03-17T13:12:45.404Z,19.90
2019-03-17T13:15:15.567Z,19.80
2019-03-17T13:17:47.062Z,19.80
2019-03-17T13:20:17.091Z,19.70
2019-03-17T13:22:47.252Z,19.70
2019-03-17T13:25:18.612Z,19.50
2019-03-17T13:27:48.773Z,19.40
2019-03-17T13:30:18.989Z,19.40
2019-03-17T13:32:49.156Z,19.30
2019-03-17T13:35:19.228Z,19.30
2019-03-17T13:37:49.244Z,19.20
2019-03-17T13:40:28.782Z,19.40
2019-03-17T13:42:50.942Z,19.50
2019-03-17T13:45:21.034Z,19.50
2019-03-17T13:47:53.006Z,19.60
2019-03-17T13:50:22.861Z,19.40
2019-03-17T13:52:57.141Z,19.40
2019-03-17T13:55:28.355Z,19.20
2019-03-17T13:58:03.525Z,18.90
2019-03-17T14:00:35.886Z,18.90
2019-03-17T14:03:07.339Z,18.70
2019-03-17T14:05:37.438Z,18.50
2019-03-17T14:08:07.503Z,18.30
2019-03-17T14:10:41.433Z,18.40
2019-03-17T14:13:09.443Z,18.60
2019-03-17T14:15:39.633Z,18.60
2019-03-17T14:18:09.711Z,18.50
2019-03-17T14:20:39.813Z,18.40
2019-03-17T14:23:09.825Z,18.30
2019-03-17T14:25:39.915Z,18.30
2019-03-17T14:28:11.709Z,18.30
2019-03-17T14:30:41.731Z,18.20
2019-03-17T14:33:11.806Z,18.10
2019-03-17T14:35:41.904Z,18.10
2019-03-17T14:38:11.993Z,18.20
2019-03-17T14:40:52.843Z,18.20
2019-03-17T14:43:13.855Z,18.20
2019-03-17T14:45:44.030Z,18.10
2019-03-17T14:48:14.031Z,18.00
2019-03-17T14:50:44.045Z,17.90
2019-03-17T14:53:14.179Z,18.00
2019-03-17T14:55:44.191Z,18.00
2019-03-17T14:58:14.521Z,18.00
2019-03-17T15:00:45.274Z,17.90
2019-03-17T15:03:16.535Z,17.80
2019-03-17T15:05:46.659Z,17.80
2019-03-17T15:08:16.759Z,17.80
2019-03-17T15:10:46.850Z,17.90
2019-03-17T15:13:17.822Z,17.80
2019-03-17T15:16:01.957Z,17.70
2019-03-17T15:18:21.337Z,17.60
2019-03-17T15:20:51.326Z,17.70
2019-03-17T15:23:21.429Z,17.60
2019-03-17T15:25:51.524Z,17.60
2019-03-17T15:28:22.744Z,17.60
2019-03-17T15:31:09.731Z,17.60
2019-03-17T15:33:25.851Z,17.50
2019-03-17T15:35:57.557Z,17.40
2019-03-17T15:38:27.706Z,17.40
2019-03-17T15:40:57.881Z,17.30
2019-03-17T15:43:34.154Z,17.20
2019-03-17T15:46:05.912Z,17.10
2019-03-17T15:48:37.502Z,17.00
2019-03-17T15:51:19.260Z,17.00
2019-03-17T15:53:39.314Z,16.80
2019-03-17T15:56:10.605Z,16.70
2019-03-17T15:58:40.756Z,16.70
2019-03-17T16:01:12.141Z,16.60
2019-03-17T16:03:42.240Z,16.50
2019-03-17T16:06:12.268Z,16.30
2019-03-17T16:08:45.124Z,16.30
2019-03-17T16:11:15.237Z,16.10
2019-03-17T16:13:47.070Z,16.10
2019-03-17T16:16:17.198Z,15.90
2019-03-17T16:18:48.928Z,15.90
2019-03-17T16:21:18.935Z,15.80
2019-03-17T16:23:49.012Z,15.80
2019-03-17T16:26:19.024Z,15.70
2019-03-17T16:28:49.014Z,15.60
2019-03-17T16:31:19.148Z,15.60
2019-03-17T16:33:49.406Z,15.50
2019-03-17T16:36:19.483Z,15.30
2019-03-17T16:38:49.578Z,15.30
2019-03-17T16:41:19.675Z,15.20
2019-03-17T16:43:49.681Z,15.20
2019-03-17T16:46:19.691Z,15.10
2019-03-17T16:48:50.117Z,15.00
2019-03-17T16:51:21.281Z,15.00
2019-03-17T16:53:51.423Z,14.90
2019-03-17T16:56:22.714Z,14.80
2019-03-17T16:58:52.793Z,14.70
2019-03-17T17:01:22.795Z,14.70
2019-03-17T17:03:54.020Z,14.50
2019-03-17T17:06:24.012Z,14.40
2019-03-17T17:08:56.687Z,14.40
2019-03-17T17:11:27.154Z,14.30
2019-03-17T17:14:00.101Z,14.20
2019-03-17T17:16:30.131Z,14.00
2019-03-17T17:19:00.192Z,14.00
2019-03-17T17:21:30.278Z,14.00
2019-03-17T17:24:02.133Z,14.00
2019-03-17T17:26:37.310Z,13.80
2019-03-17T17:29:06.696Z,13.70
2019-03-17T17:31:36.809Z,13.70
2019-03-17T17:34:09.907Z,13.70
2019-03-17T17:36:40.049Z,13.60
2019-03-17T17:39:10.392Z,13.60
2019-03-17T17:41:41.941Z,13.50
2019-03-17T17:44:17.816Z,13.50
2019-03-17T17:46:50.982Z,13.50
2019-03-17T17:49:20.969Z,13.40
2019-03-17T17:51:50.971Z,13.40
2019-03-17T17:54:21.199Z,13.40
2019-03-17T17:56:51.233Z,13.40
2019-03-17T17:59:24.288Z,13.20
2019-03-17T18:01:54.419Z,12.90
2019-03-17T18:04:25.439Z,12.60
2019-03-17T18:06:55.627Z,12.50
2019-03-17T18:09:25.714Z,12.30
2019-03-17T18:11:57.139Z,12.30
2019-03-17T18:14:27.165Z,12.10
2019-03-17T18:16:58.711Z,11.50
2019-03-17T18:19:28.902Z,10.90
2019-03-17T18:21:59.152Z,10.40
2019-03-17T18:24:31.339Z,10.00
2019-03-17T18:27:03.769Z,9.80
2019-03-17T18:29:35.020Z,9.50
2019-03-17T18:32:07.981Z,9.30
2019-03-17T18:34:38.004Z,9.00
2019-03-17T18:37:09.989Z,8.60
2019-03-17T18:39:39.879Z,8.40
2019-03-17T18:42:10.298Z,8.30
2019-03-17T18:44:43.880Z,8.20
2019-03-17T18:47:18.931Z,8.10
2019-03-17T18:49:49.237Z,8.00
2019-03-17T18:52:21.348Z,7.90
2019-03-17T18:54:58.323Z,7.80
2019-03-17T18:57:28.431Z,7.80
2019-03-17T18:59:58.468Z,7.70
2019-03-17T19:02:28.594Z,7.60
2019-03-17T19:05:00.483Z,7.40
2019-03-17T19:07:30.536Z,7.20
2019-03-17T19:10:00.659Z,7.10
2019-03-17T19:12:30.894Z,6.90
2019-03-17T19:15:00.973Z,6.80
2019-03-17T19:17:31.090Z,6.60
2019-03-17T19:20:01.305Z,6.50
2019-03-17T19:22:31.471Z,6.40
2019-03-17T19:25:01.573Z,6.30
2019-03-17T19:27:31.787Z,6.10
2019-03-17T19:30:01.814Z,5.90
2019-03-17T19:32:32.178Z,5.80
2019-03-17T19:35:02.198Z,5.60
2019-03-17T19:37:32.350Z,5.70
2019-03-17T19:40:02.452Z,5.60
2019-03-17T19:42:32.650Z,5.70
2019-03-17T19:45:02.807Z,5.70
2019-03-17T19:47:34.026Z,5.70
2019-03-17T19:50:05.412Z,5.60
2019-03-17T19:52:35.530Z,5.50
2019-03-17T19:55:07.662Z,5.50
2019-03-17T19:57:37.963Z,5.60
2019-03-17T20:00:09.517Z,5.60
2019-03-17T20:02:39.792Z,5.70
2019-03-17T20:05:09.981Z,5.70
2019-03-17T20:07:40.188Z,5.70
2019-03-17T20:10:14.075Z,5.80
2019-03-17T20:12:44.512Z,5.80
2019-03-17T20:15:14.726Z,5.80
2019-03-17T20:17:46.632Z,5.70
2019-03-17T20:20:16.905Z,5.60
2019-03-17T20:22:47.159Z,5.50
2019-03-17T20:25:17.151Z,5.30
2019-03-17T20:27:47.265Z,5.20
2019-03-17T20:30:17.450Z,5.30
2019-03-17T20:32:47.809Z,5.30
2019-03-17T20:35:18.001Z,5.20
2019-03-17T20:37:48.466Z,5.30
2019-03-17T20:40:18.514Z,5.20
2019-03-17T20:42:48.754Z,5.10
2019-03-17T20:45:20.403Z,5.10
2019-03-17T20:47:52.019Z,5.20
2019-03-17T20:50:22.306Z,5.30
2019-03-17T20:52:52.333Z,5.40
2019-03-17T20:55:22.413Z,5.40
2019-03-17T20:57:52.517Z,5.30
2019-03-17T21:00:25.049Z,5.10
2019-03-17T21:02:56.213Z,5.20
2019-03-17T21:05:26.334Z,5.20
2019-03-17T21:07:56.432Z,5.00
2019-03-17T21:10:26.688Z,5.00
2019-03-17T21:12:56.803Z,5.00
2019-03-17T21:15:28.349Z,5.00
2019-03-17T21:17:58.457Z,5.00
2019-03-17T21:20:31.538Z,5.10
2019-03-17T21:23:01.623Z,5.20
2019-03-17T21:25:35.470Z,5.20
2019-03-17T21:28:05.608Z,5.10
2019-03-17T21:30:37.492Z,5.00
2019-03-17T21:33:07.638Z,5.00
2019-03-17T21:35:37.811Z,5.10
2019-03-17T21:38:09.106Z,5.20
2019-03-17T21:40:56.371Z,5.20
2019-03-17T21:43:16.315Z,5.20
2019-03-17T21:45:47.480Z,5.20
2019-03-17T21:48:20.112Z,5.30
2019-03-17T21:50:52.266Z,5.20
2019-03-17T21:53:22.368Z,5.20
2019-03-17T21:55:54.225Z,5.30
2019-03-17T21:58:25.911Z,5.30
2019-03-17T22:00:58.770Z,5.30
2019-03-17T22:03:34.126Z,5.20
2019-03-17T22:06:09.996Z,5.30
2019-03-17T22:08:40.183Z,5.30
2019-03-17T22:11:11.365Z,5.40
2019-03-17T22:13:44.027Z,5.30
2019-03-17T22:16:16.179Z,5.30
2019-03-17T22:18:46.157Z,5.30
2019-03-17T22:21:16.240Z,5.40
2019-03-17T22:23:46.354Z,5.40
2019-03-17T22:26:18.250Z,5.40
2019-03-17T22:28:50.213Z,5.40
2019-03-17T22:31:23.699Z,5.40
2019-03-17T22:33:53.777Z,5.30
2019-03-17T22:36:27.763Z,5.20
2019-03-17T22:38:58.729Z,5.30
2019-03-17T22:41:32.860Z,5.20
2019-03-17T22:44:04.060Z,5.20
2019-03-17T22:46:34.141Z,5.30
2019-03-17T22:49:04.253Z,5.30
2019-03-17T22:51:35.660Z,5.40
2019-03-17T22:54:10.196Z,5.40
2019-03-17T22:56:40.291Z,5.40
2019-03-17T22:59:10.406Z,5.30
2019-03-17T23:01:42.171Z,5.30
2019-03-17T23:04:12.291Z,5.30
2019-03-17T23:06:49.793Z,5.30
2019-03-17T23:09:24.127Z,5.20
2019-03-17T23:11:54.174Z,5.20
2019-03-17T23:14:35.842Z,5.20
2019-03-17T23:16:59.230Z,5.10
2019-03-17T23:19:31.246Z,5.20
2019-03-17T23:22:04.080Z,5.20
2019-03-17T23:24:34.172Z,5.30
2019-03-17T23:27:13.121Z,5.10
2019-03-17T23:29:47.967Z,5.10
2019-03-17T23:32:18.109Z,5.10
2019-03-17T23:34:48.157Z,5.00
2019-03-17T23:37:18.235Z,5.00
2019-03-17T23:39:49.576Z,4.90
2019-03-17T23:42:19.835Z,5.00
2019-03-17T23:44:50.242Z,4.90
2019-03-17T23:47:21.410Z,5.00
2019-03-17T23:49:51.485Z,4.90
2019-03-17T23:52:22.790Z,5.00
2019-03-17T23:54:52.909Z,4.90
2019-03-17T23:57:24.546Z,4.80
2019-03-17T23:59:55.779Z,4.90
